sensor_id;sensor_type;location;lat;lon;timestamp;pressure;altitude;pressure_sealevel;temperature;humidity
46347;BME280;32057;47.830;19.046;2022-09-09T00:03:55;99900.94;;;17.25;100.00
46347;BME280;32057;47.830;19.046;2022-09-09T00:06:27;99895.72;;;17.23;100.00
46347;BME280;32057;47.830;19.046;2022-09-09T00:09:00;99892.31;;;17.17;100.00
46347;BME280;32057;47.830;19.046;2022-09-09T00:11:43;99892.22;;;17.23;100.00
46347;BME280;32057;47.830;19.046;2022-09-09T00:14:17;99886.84;;;17.30;100.00
46347;BME280;32057;47.830;19.046;2022-09-09T00:16:49;99892.19;;;17.27;100.00
46347;BME280;32057;47.830;19.046;2022-09-09T00:22:23;99881.69;;;17.24;100.00
46347;BME280;32057;47.830;19.046;2022-09-09T00:24:52;99880.00;;;17.17;100.00
46347;BME280;32057;47.830;19.046;2022-09-09T00:27:36;99873.91;;;17.15;100.00
46347;BME280;32057;47.830;19.046;2022-09-09T00:30:20;99879.13;;;17.18;100.00
46347;BME280;32057;47.830;19.046;2022-09-09T00:32:48;99889.66;;;17.17;100.00
46347;BME280;32057;47.830;19.046;2022-09-09T00:35:24;99885.34;;;17.14;100.00
46347;BME280;32057;47.830;19.046;2022-09-09T00:37:53;99881.78;;;17.15;100.00
46347;BME280;32057;47.830;19.046;2022-09-09T00:40:35;99876.69;;;17.07;100.00
46347;BME280;32057;47.830;19.046;2022-09-09T00:48:36;99880.06;;;17.14;100.00
46347;BME280;32057;47.830;19.046;2022-09-09T00:56:37;99887.03;;;17.18;100.00
46347;BME280;32057;47.830;19.046;2022-09-09T00:59:25;99885.47;;;17.03;100.00
46347;BME280;32057;47.830;19.046;2022-09-09T01:01:53;99881.19;;;16.98;100.00
46347;BME280;32057;47.830;19.046;2022-09-09T01:04:28;99890.72;;;17.03;100.00
46347;BME280;32057;47.830;19.046;2022-09-09T01:07:06;99892.47;;;17.03;100.00
46347;BME280;32057;47.830;19.046;2022-09-09T01:14:42;99885.53;;;17.00;100.00
46347;BME280;32057;47.830;19.046;2022-09-09T01:17:26;99896.09;;;16.96;100.00
46347;BME280;32057;47.830;19.046;2022-09-09T01:20:14;99898.66;;;17.02;100.00
46347;BME280;32057;47.830;19.046;2022-09-09T01:28:13;99925.88;;;16.95;100.00
46347;BME280;32057;47.830;19.046;2022-09-09T01:30:41;99918.16;;;16.82;100.00
46347;BME280;32057;47.830;19.046;2022-09-09T01:33:12;99921.69;;;16.75;100.00
46347;BME280;32057;47.830;19.046;2022-09-09T01:38:10;99918.16;;;16.79;100.00
46347;BME280;32057;47.830;19.046;2022-09-09T01:40:35;99907.69;;;16.76;100.00
46347;BME280;32057;47.830;19.046;2022-09-09T01:43:01;99921.75;;;16.69;100.00
46347;BME280;32057;47.830;19.046;2022-09-09T01:45:28;99923.53;;;16.67;100.00
46347;BME280;32057;47.830;19.046;2022-09-09T01:47:53;99913.09;;;16.64;100.00
46347;BME280;32057;47.830;19.046;2022-09-09T01:50:20;99919.28;;;16.55;100.00
46347;BME280;32057;47.830;19.046;2022-09-09T01:52:51;99921.06;;;16.55;100.00
46347;BME280;32057;47.830;19.046;2022-09-09T01:55:29;99923.75;;;16.48;100.00
46347;BME280;32057;47.830;19.046;2022-09-09T02:00:40;99921.06;;;16.55;100.00
46347;BME280;32057;47.830;19.046;2022-09-09T02:05:38;99936.72;;;16.64;100.00
46347;BME280;32057;47.830;19.046;2022-09-09T02:08:56;99932.34;;;16.64;100.00
46347;BME280;32057;47.830;19.046;2022-09-09T02:11:12;99946.25;;;16.71;100.00
46347;BME280;32057;47.830;19.046;2022-09-09T02:13:39;99944.56;;;16.67;100.00
46347;BME280;32057;47.830;19.046;2022-09-09T02:16:18;99949.78;;;16.70;100.00
46347;BME280;32057;47.830;19.046;2022-09-09T02:19:07;99949.75;;;16.73;100.00
46347;BME280;32057;47.830;19.046;2022-09-09T02:21:35;99946.31;;;16.68;100.00
46347;BME280;32057;47.830;19.046;2022-09-09T02:24:04;99939.34;;;16.64;100.00
46347;BME280;32057;47.830;19.046;2022-09-09T02:26:32;99944.63;;;16.62;100.00
46347;BME280;32057;47.830;19.046;2022-09-09T02:29:01;99943.75;;;16.62;100.00
46347;BME280;32057;47.830;19.046;2022-09-09T02:31:28;99948.09;;;16.63;100.00
46347;BME280;32057;47.830;19.046;2022-09-09T02:33:59;99952.44;;;16.65;100.00
46347;BME280;32057;47.830;19.046;2022-09-09T02:36:29;99949.00;;;16.62;100.00
46347;BME280;32057;47.830;19.046;2022-09-09T02:38:56;99944.69;;;16.58;100.00
46347;BME280;32057;47.830;19.046;2022-09-09T02:41:33;99950.81;;;16.55;100.00
46347;BME280;32057;47.830;19.046;2022-09-09T02:43:59;99944.75;;;16.47;100.00
46347;BME280;32057;47.830;19.046;2022-09-09T02:49:21;99950.09;;;16.39;100.00
46347;BME280;32057;47.830;19.046;2022-09-09T02:51:56;99948.38;;;16.38;100.00
46347;BME280;32057;47.830;19.046;2022-09-09T02:56:53;99952.03;;;16.22;100.00
46347;BME280;32057;47.830;19.046;2022-09-09T02:59:20;99951.22;;;16.13;100.00
46347;BME280;32057;47.830;19.046;2022-09-09T03:01:46;99947.69;;;16.16;100.00
46347;BME280;32057;47.830;19.046;2022-09-09T03:04:12;99946.84;;;16.16;100.00
46347;BME280;32057;47.830;19.046;2022-09-09T03:06:38;99945.06;;;16.15;100.00
46347;BME280;32057;47.830;19.046;2022-09-09T03:09:04;99935.50;;;16.09;100.00
46347;BME280;32057;47.830;19.046;2022-09-09T03:11:30;99935.47;;;16.12;100.00
46347;BME280;32057;47.830;19.046;2022-09-09T03:13:55;99938.97;;;16.11;100.00
46347;BME280;32057;47.830;19.046;2022-09-09T03:16:22;99935.53;;;16.04;100.00
46347;BME280;32057;47.830;19.046;2022-09-09T03:18:47;99937.31;;;16.04;100.00
46347;BME280;32057;47.830;19.046;2022-09-09T03:21:13;99934.69;;;16.02;100.00
46347;BME280;32057;47.830;19.046;2022-09-09T03:23:39;99926.81;;;16.02;100.00
46347;BME280;32057;47.830;19.046;2022-09-09T03:26:04;99932.97;;;16.00;100.00
46347;BME280;32057;47.830;19.046;2022-09-09T03:28:30;99934.72;;;15.98;100.00
46347;BME280;32057;47.830;19.046;2022-09-09T03:31:03;99933.81;;;15.99;100.00
46347;BME280;32057;47.830;19.046;2022-09-09T03:33:30;99932.13;;;15.95;100.00
46347;BME280;32057;47.830;19.046;2022-09-09T03:35:56;99935.66;;;15.90;100.00
46347;BME280;32057;47.830;19.046;2022-09-09T03:38:25;99942.66;;;15.87;100.00
46347;BME280;32057;47.830;19.046;2022-09-09T03:40:52;99932.19;;;15.85;100.00
46347;BME280;32057;47.830;19.046;2022-09-09T03:43:23;99942.66;;;15.85;100.00
46347;BME280;32057;47.830;19.046;2022-09-09T03:45:49;99941.81;;;15.86;100.00
46347;BME280;32057;47.830;19.046;2022-09-09T03:48:16;99945.28;;;15.90;100.00
46347;BME280;32057;47.830;19.046;2022-09-09T03:50:49;99946.09;;;15.95;100.00
46347;BME280;32057;47.830;19.046;2022-09-09T03:53:16;99953.97;;;15.97;100.00
46347;BME280;32057;47.830;19.046;2022-09-09T03:55:46;99953.06;;;16.01;100.00
46347;BME280;32057;47.830;19.046;2022-09-09T03:58:13;99957.41;;;16.05;100.00
46347;BME280;32057;47.830;19.046;2022-09-09T04:00:39;99960.03;;;16.05;100.00
46347;BME280;32057;47.830;19.046;2022-09-09T04:03:08;99962.59;;;16.09;100.00
46347;BME280;32057;47.830;19.046;2022-09-09T04:05:34;99951.25;;;16.09;100.00
46347;BME280;32057;47.830;19.046;2022-09-09T04:07:59;99958.25;;;16.05;100.00
46347;BME280;32057;47.830;19.046;2022-09-09T04:10:25;99958.31;;;16.01;100.00
46347;BME280;32057;47.830;19.046;2022-09-09T04:12:50;99961.84;;;15.98;100.00
46347;BME280;32057;47.830;19.046;2022-09-09T04:15:16;99961.84;;;15.97;100.00
46347;BME280;32057;47.830;19.046;2022-09-09T04:17:43;99960.97;;;15.93;100.00
46347;BME280;32057;47.830;19.046;2022-09-09T04:20:09;99956.69;;;15.86;100.00
46347;BME280;32057;47.830;19.046;2022-09-09T04:22:37;99968.94;;;15.84;100.00
46347;BME280;32057;47.830;19.046;2022-09-09T04:25:05;99958.44;;;15.84;100.00
46347;BME280;32057;47.830;19.046;2022-09-09T04:27:31;99962.78;;;15.85;100.00
46347;BME280;32057;47.830;19.046;2022-09-09T04:29:57;99957.56;;;15.85;100.00
46347;BME280;32057;47.830;19.046;2022-09-09T04:32:22;99963.66;;;15.85;100.00
46347;BME280;32057;47.830;19.046;2022-09-09T04:34:48;99957.56;;;15.85;100.00
46347;BME280;32057;47.830;19.046;2022-09-09T04:37:13;99965.44;;;15.83;100.00
46347;BME280;32057;47.830;19.046;2022-09-09T04:39:39;99968.09;;;15.82;100.00
46347;BME280;32057;47.830;19.046;2022-09-09T04:42:04;99967.19;;;15.86;100.00
46347;BME280;32057;47.830;19.046;2022-09-09T04:44:30;99959.28;;;15.89;100.00
46347;BME280;32057;47.830;19.046;2022-09-09T04:46:55;99968.91;;;15.87;100.00
46347;BME280;32057;47.830;19.046;2022-09-09T04:49:21;99969.75;;;15.92;100.00
46347;BME280;32057;47.830;19.046;2022-09-09T04:51:49;99965.38;;;15.92;100.00
46347;BME280;32057;47.830;19.046;2022-09-09T04:54:14;99964.47;;;15.95;100.00
46347;BME280;32057;47.830;19.046;2022-09-09T04:56:40;99963.56;;;16.01;100.00
46347;BME280;32057;47.830;19.046;2022-09-09T04:59:07;99962.66;;;16.03;100.00
46347;BME280;32057;47.830;19.046;2022-09-09T05:01:32;99956.50;;;16.09;100.00
46347;BME280;32057;47.830;19.046;2022-09-09T05:03:58;99957.34;;;16.14;100.00
46347;BME280;32057;47.830;19.046;2022-09-09T05:06:24;99958.19;;;16.13;100.00
46347;BME280;32057;47.830;19.046;2022-09-09T05:08:50;99966.06;;;16.18;100.00
46347;BME280;32057;47.830;19.046;2022-09-09T05:11:21;99959.06;;;16.15;100.00
46347;BME280;32057;47.830;19.046;2022-09-09T05:13:48;99966.94;;;16.17;100.00
46347;BME280;32057;47.830;19.046;2022-09-09T05:16:15;99971.28;;;16.21;100.00
46347;BME280;32057;47.830;19.046;2022-09-09T05:18:42;99964.28;;;16.20;100.00
46347;BME280;32057;47.830;19.046;2022-09-09T05:21:08;99967.78;;;16.22;100.00
46347;BME280;32057;47.830;19.046;2022-09-09T05:23:34;99978.28;;;16.22;100.00
46347;BME280;32057;47.830;19.046;2022-09-09T05:26:00;99975.66;;;16.17;100.00
46347;BME280;32057;47.830;19.046;2022-09-09T05:28:26;99981.78;;;16.21;100.00
46347;BME280;32057;47.830;19.046;2022-09-09T05:31:06;99976.53;;;16.19;100.00
46347;BME280;32057;47.830;19.046;2022-09-09T05:33:36;99987.88;;;16.24;100.00
46347;BME280;32057;47.830;19.046;2022-09-09T05:36:03;99988.66;;;16.34;100.00
46347;BME280;32057;47.830;19.046;2022-09-09T05:38:30;99982.50;;;16.38;100.00
46347;BME280;32057;47.830;19.046;2022-09-09T05:40:56;99985.13;;;16.38;100.00
46347;BME280;32057;47.830;19.046;2022-09-09T05:43:22;99982.50;;;16.38;100.00
46347;BME280;32057;47.830;19.046;2022-09-09T05:45:48;99992.09;;;16.42;100.00
46347;BME280;32057;47.830;19.046;2022-09-09T05:48:23;99986.78;;;16.48;100.00
46347;BME280;32057;47.830;19.046;2022-09-09T05:50:52;99984.97;;;16.55;100.00
46347;BME280;32057;47.830;19.046;2022-09-09T05:53:18;99979.69;;;16.58;100.00
46347;BME280;32057;47.830;19.046;2022-09-09T05:55:43;99977.91;;;16.62;100.00
46347;BME280;32057;47.830;19.046;2022-09-09T05:58:10;99983.13;;;16.65;100.00
46347;BME280;32057;47.830;19.046;2022-09-09T06:00:36;99982.25;;;16.66;100.00
46347;BME280;32057;47.830;19.046;2022-09-09T06:03:03;99984.81;;;16.69;100.00
46347;BME280;32057;47.830;19.046;2022-09-09T06:05:29;99984.81;;;16.72;100.00
46347;BME280;32057;47.830;19.046;2022-09-09T06:07:54;99989.09;;;16.79;100.00
46347;BME280;32057;47.830;19.046;2022-09-09T06:12:53;99990.81;;;16.86;100.00
46347;BME280;32057;47.830;19.046;2022-09-09T06:15:18;99989.88;;;16.94;100.00
46347;BME280;32057;47.830;19.046;2022-09-09T06:17:44;99989.81;;;16.97;100.00
46347;BME280;32057;47.830;19.046;2022-09-09T06:20:10;99988.03;;;16.99;100.00
46347;BME280;32057;47.830;19.046;2022-09-09T06:22:35;99986.19;;;17.07;100.00
46347;BME280;32057;47.830;19.046;2022-09-09T06:25:01;99987.88;;;17.12;100.00
46347;BME280;32057;47.830;19.046;2022-09-09T06:27:27;99991.44;;;17.10;100.00
46347;BME280;32057;47.830;19.046;2022-09-09T06:29:53;99994.03;;;17.11;100.00
46347;BME280;32057;47.830;19.046;2022-09-09T06:32:19;99991.38;;;17.13;100.00
46347;BME280;32057;47.830;19.046;2022-09-09T06:34:44;99993.16;;;17.11;100.00
46347;BME280;32057;47.830;19.046;2022-09-09T06:37:10;99989.59;;;17.17;100.00
46347;BME280;32057;47.830;19.046;2022-09-09T06:39:36;99995.66;;;17.22;100.00
46347;BME280;32057;47.830;19.046;2022-09-09T06:42:01;99997.28;;;17.32;100.00
46347;BME280;32057;47.830;19.046;2022-09-09T06:44:27;99995.47;;;17.37;100.00
46347;BME280;32057;47.830;19.046;2022-09-09T06:46:52;99996.16;;;17.51;100.00
46347;BME280;32057;47.830;19.046;2022-09-09T06:49:18;99996.78;;;17.69;100.00
46347;BME280;32057;47.830;19.046;2022-09-09T06:51:44;99995.75;;;17.84;100.00
46347;BME280;32057;47.830;19.046;2022-09-09T06:54:10;99999.13;;;17.94;100.00
46347;BME280;32057;47.830;19.046;2022-09-09T06:56:41;99994.50;;;18.08;100.00
46347;BME280;32057;47.830;19.046;2022-09-09T06:59:09;100000.63;;;18.08;100.00
46347;BME280;32057;47.830;19.046;2022-09-09T07:01:37;100001.63;;;18.01;100.00
46347;BME280;32057;47.830;19.046;2022-09-09T07:04:03;99999.78;;;18.05;100.00
46347;BME280;32057;47.830;19.046;2022-09-09T07:06:34;100004.09;;;18.10;100.00
46347;BME280;32057;47.830;19.046;2022-09-09T07:09:02;100004.16;;;18.07;100.00
46347;BME280;32057;47.830;19.046;2022-09-09T07:11:32;100006.69;;;18.14;100.00
46347;BME280;32057;47.830;19.046;2022-09-09T07:13:58;100016.09;;;18.30;100.00
46347;BME280;32057;47.830;19.046;2022-09-09T07:16:24;100016.78;;;18.41;100.00
46347;BME280;32057;47.830;19.046;2022-09-09T07:18:51;100013.13;;;18.48;100.00
46347;BME280;32057;47.830;19.046;2022-09-09T07:21:18;100006.94;;;18.51;100.00
46347;BME280;32057;47.830;19.046;2022-09-09T07:23:44;100004.25;;;18.54;100.00
46347;BME280;32057;47.830;19.046;2022-09-09T07:26:15;100003.19;;;18.66;100.00
46347;BME280;32057;47.830;19.046;2022-09-09T07:28:42;99999.50;;;18.75;100.00
46347;BME280;32057;47.830;19.046;2022-09-09T07:31:13;100001.16;;;18.79;100.00
46347;BME280;32057;47.830;19.046;2022-09-09T07:33:39;100008.94;;;18.88;100.00
46347;BME280;32057;47.830;19.046;2022-09-09T07:36:26;100019.25;;;19.00;100.00
46347;BME280;32057;47.830;19.046;2022-09-09T07:38:54;100016.41;;;19.11;100.00
46347;BME280;32057;47.830;19.046;2022-09-09T07:41:25;100011.88;;;19.19;100.00
46347;BME280;32057;47.830;19.046;2022-09-09T07:43:52;99996.66;;;19.30;100.00
46347;BME280;32057;47.830;19.046;2022-09-09T07:46:23;99997.03;;;19.56;100.00
46347;BME280;32057;47.830;19.046;2022-09-09T07:48:55;99996.50;;;19.80;100.00
46347;BME280;32057;47.830;19.046;2022-09-09T07:51:25;100004.66;;;19.68;100.00
46347;BME280;32057;47.830;19.046;2022-09-09T07:53:54;100007.84;;;19.85;100.00
46347;BME280;32057;47.830;19.046;2022-09-09T07:56:20;100021.63;;;19.98;99.02
46347;BME280;32057;47.830;19.046;2022-09-09T07:58:49;100014.91;;;20.21;97.17
46347;BME280;32057;47.830;19.046;2022-09-09T08:01:17;100009.81;;;20.49;98.07
46347;BME280;32057;47.830;19.046;2022-09-09T08:03:44;100010.22;;;20.32;95.62
46347;BME280;32057;47.830;19.046;2022-09-09T08:06:11;100013.84;;;20.28;94.60
46347;BME280;32057;47.830;19.046;2022-09-09T08:08:37;100006.13;;;20.55;97.01
46347;BME280;32057;47.830;19.046;2022-09-09T08:11:11;100021.13;;;20.88;96.04
46347;BME280;32057;47.830;19.046;2022-09-09T08:13:37;100011.19;;;20.98;93.16
46347;BME280;32057;47.830;19.046;2022-09-09T08:16:11;100004.25;;;20.94;93.57
46347;BME280;32057;47.830;19.046;2022-09-09T08:18:37;100017.25;;;21.02;93.89
46347;BME280;32057;47.830;19.046;2022-09-09T08:21:11;100008.16;;;21.12;91.54
46347;BME280;32057;47.830;19.046;2022-09-09T08:23:41;100018.38;;;21.24;90.73
46347;BME280;32057;47.830;19.046;2022-09-09T08:26:12;100008.53;;;21.29;88.79
46347;BME280;32057;47.830;19.046;2022-09-09T08:28:39;100005.06;;;21.59;90.02
46347;BME280;32057;47.830;19.046;2022-09-09T08:31:11;99992.84;;;21.83;88.58
46347;BME280;32057;47.830;19.046;2022-09-09T08:33:37;99990.88;;;21.61;87.60
46347;BME280;32057;47.830;19.046;2022-09-09T08:36:04;99999.06;;;21.52;86.83
46347;BME280;32057;47.830;19.046;2022-09-09T08:38:30;99992.69;;;21.59;86.57
46347;BME280;32057;47.830;19.046;2022-09-09T08:41:06;99992.50;;;21.65;85.19
46347;BME280;32057;47.830;19.046;2022-09-09T08:43:34;99990.56;;;21.71;85.63
46347;BME280;32057;47.830;19.046;2022-09-09T08:48:53;99986.81;;;21.78;84.76
46347;BME280;32057;47.830;19.046;2022-09-09T08:51:24;99980.78;;;21.73;85.33
46347;BME280;32057;47.830;19.046;2022-09-09T08:53:51;99988.72;;;21.73;83.67
46347;BME280;32057;47.830;19.046;2022-09-09T08:56:21;99988.47;;;21.82;85.88
46347;BME280;32057;47.830;19.046;2022-09-09T08:58:51;99992.91;;;21.81;83.50
46347;BME280;32057;47.830;19.046;2022-09-09T09:01:48;99998.47;;;22.00;85.16
46347;BME280;32057;47.830;19.046;2022-09-09T09:04:42;99995.31;;;22.16;82.42
46347;BME280;32057;47.830;19.046;2022-09-09T09:09:47;99987.13;;;21.97;80.19
46347;BME280;32057;47.830;19.046;2022-09-09T09:12:23;99982.00;;;22.19;81.93
46347;BME280;32057;47.830;19.046;2022-09-09T09:14:50;99984.69;;;22.17;82.46
46347;BME280;32057;47.830;19.046;2022-09-09T09:17:20;99983.31;;;22.32;78.04
46347;BME280;32057;47.830;19.046;2022-09-09T09:19:48;99986.06;;;22.56;77.30
46347;BME280;32057;47.830;19.046;2022-09-09T09:27:21;99976.91;;;22.90;77.46
46347;BME280;32057;47.830;19.046;2022-09-09T09:29:54;99983.69;;;22.73;74.54
46347;BME280;32057;47.830;19.046;2022-09-09T09:32:22;99986.19;;;22.78;75.17
46347;BME280;32057;47.830;19.046;2022-09-09T09:35:11;99988.16;;;22.73;73.37
46347;BME280;32057;47.830;19.046;2022-09-09T09:37:37;99984.69;;;22.94;73.92
46347;BME280;32057;47.830;19.046;2022-09-09T09:42:35;99979.25;;;22.99;75.65
46347;BME280;32057;47.830;19.046;2022-09-09T09:47:58;99967.41;;;23.33;69.70
46347;BME280;32057;47.830;19.046;2022-09-09T09:50:23;99970.50;;;23.44;70.75
46347;BME280;32057;47.830;19.046;2022-09-09T09:52:57;99965.38;;;23.16;69.94
46347;BME280;32057;47.830;19.046;2022-09-09T09:55:23;99966.78;;;23.48;72.10
46347;BME280;32057;47.830;19.046;2022-09-09T09:57:49;99969.03;;;23.59;70.60
46347;BME280;32057;47.830;19.046;2022-09-09T10:00:21;99963.28;;;23.70;68.73
46347;BME280;32057;47.830;19.046;2022-09-09T10:02:47;99959.53;;;23.75;68.28
46347;BME280;32057;47.830;19.046;2022-09-09T10:05:26;99956.72;;;23.80;64.54
46347;BME280;32057;47.830;19.046;2022-09-09T10:08:13;99967.22;;;24.05;66.50
46347;BME280;32057;47.830;19.046;2022-09-09T10:18:56;99967.06;;;24.30;61.61
46347;BME280;32057;47.830;19.046;2022-09-09T10:27:09;99965.50;;;24.47;60.23
46347;BME280;32057;47.830;19.046;2022-09-09T10:40:42;99954.28;;;25.00;59.50
46347;BME280;32057;47.830;19.046;2022-09-09T10:48:38;99969.22;;;24.42;56.25
46347;BME280;32057;47.830;19.046;2022-09-09T10:56:25;99971.88;;;24.42;56.34
46347;BME280;32057;47.830;19.046;2022-09-09T10:59:07;99968.09;;;24.26;55.54
46347;BME280;32057;47.830;19.046;2022-09-09T11:01:43;99974.13;;;24.31;54.35
46347;BME280;32057;47.830;19.046;2022-09-09T11:04:24;99961.88;;;24.27;54.23
46347;BME280;32057;47.830;19.046;2022-09-09T11:06:54;99976.97;;;24.27;54.72
46347;BME280;32057;47.830;19.046;2022-09-09T11:09:23;99968.00;;;24.29;53.90
46347;BME280;32057;47.830;19.046;2022-09-09T11:11:57;99968.53;;;24.37;54.25
46347;BME280;32057;47.830;19.046;2022-09-09T11:14:42;99962.47;;;24.34;51.83
46347;BME280;32057;47.830;19.046;2022-09-09T11:17:15;99966.78;;;24.36;54.11
46347;BME280;32057;47.830;19.046;2022-09-09T11:19:43;99962.84;;;24.47;51.82
46347;BME280;32057;47.830;19.046;2022-09-09T11:22:39;99964.19;;;24.57;52.43
46347;BME280;32057;47.830;19.046;2022-09-09T11:25:08;99964.69;;;24.85;51.74
46347;BME280;32057;47.830;19.046;2022-09-09T11:38:50;99960.72;;;24.75;49.43
46347;BME280;32057;47.830;19.046;2022-09-09T11:41:17;99963.66;;;24.69;48.40
46347;BME280;32057;47.830;19.046;2022-09-09T11:43:48;99957.31;;;24.72;48.04
46347;BME280;32057;47.830;19.046;2022-09-09T11:46:16;99956.41;;;24.73;46.98
46347;BME280;32057;47.830;19.046;2022-09-09T11:48:45;99947.88;;;24.85;51.55
46347;BME280;32057;47.830;19.046;2022-09-09T11:53:52;99938.69;;;25.11;50.37
46347;BME280;32057;47.830;19.046;2022-09-09T11:59:03;99924.19;;;25.37;46.07
46347;BME280;32057;47.830;19.046;2022-09-09T12:11:48;99921.88;;;25.11;50.32
46347;BME280;32057;47.830;19.046;2022-09-09T12:14:22;99918.91;;;25.17;53.63
46347;BME280;32057;47.830;19.046;2022-09-09T12:16:48;99911.94;;;25.33;51.72
46347;BME280;32057;47.830;19.046;2022-09-09T12:19:21;99919.13;;;25.50;52.88
46347;BME280;32057;47.830;19.046;2022-09-09T12:24:27;99917.72;;;25.43;51.28
46347;BME280;32057;47.830;19.046;2022-09-09T12:27:28;99924.44;;;25.50;52.64
46347;BME280;32057;47.830;19.046;2022-09-09T12:30:10;99914.19;;;25.79;51.60
46347;BME280;32057;47.830;19.046;2022-09-09T12:32:36;99907.84;;;25.81;48.20
46347;BME280;32057;47.830;19.046;2022-09-09T12:35:21;99915.91;;;25.80;51.73
46347;BME280;32057;47.830;19.046;2022-09-09T12:37:54;99917.94;;;25.75;49.02
46347;BME280;32057;47.830;19.046;2022-09-09T12:40:25;99909.25;;;25.71;48.13
46347;BME280;32057;47.830;19.046;2022-09-09T12:42:51;99895.69;;;25.76;49.48
46347;BME280;32057;47.830;19.046;2022-09-09T12:45:22;99888.81;;;25.89;51.08
46347;BME280;32057;47.830;19.046;2022-09-09T12:48:08;99891.06;;;25.98;50.43
46347;BME280;32057;47.830;19.046;2022-09-09T12:50:42;99898.09;;;25.99;46.47
46347;BME280;32057;47.830;19.046;2022-09-09T12:53:21;99900.94;;;25.96;47.31
46347;BME280;32057;47.830;19.046;2022-09-09T12:55:53;99893.72;;;25.79;48.27
46347;BME280;32057;47.830;19.046;2022-09-09T12:58:20;99897.53;;;25.56;48.61
46347;BME280;32057;47.830;19.046;2022-09-09T13:00:54;99885.16;;;25.55;49.04
46347;BME280;32057;47.830;19.046;2022-09-09T13:03:23;99886.22;;;25.88;50.28
46347;BME280;32057;47.830;19.046;2022-09-09T13:05:50;99886.09;;;25.91;48.60
46347;BME280;32057;47.830;19.046;2022-09-09T13:08:17;99878.81;;;25.94;47.46
46347;BME280;32057;47.830;19.046;2022-09-09T13:10:57;99880.09;;;25.86;46.41
46347;BME280;32057;47.830;19.046;2022-09-09T13:13:39;99878.75;;;25.77;49.16
46347;BME280;32057;47.830;19.046;2022-09-09T13:16:07;99862.78;;;25.77;48.93
46347;BME280;32057;47.830;19.046;2022-09-09T13:18:43;99867.94;;;25.80;47.53
46347;BME280;32057;47.830;19.046;2022-09-09T13:21:08;99862.13;;;25.72;50.04
46347;BME280;32057;47.830;19.046;2022-09-09T13:23:36;99860.25;;;25.74;49.44
46347;BME280;32057;47.830;19.046;2022-09-09T13:28:50;99854.41;;;25.48;47.59
46347;BME280;32057;47.830;19.046;2022-09-09T13:31:34;99860.19;;;25.39;48.74
46347;BME280;32057;47.830;19.046;2022-09-09T13:34:11;99849.78;;;25.34;50.30
46347;BME280;32057;47.830;19.046;2022-09-09T13:36:38;99852.00;;;25.24;50.75
46347;BME280;32057;47.830;19.046;2022-09-09T13:39:04;99855.94;;;25.16;50.61
46347;BME280;32057;47.830;19.046;2022-09-09T13:41:51;99850.75;;;25.13;50.30
46347;BME280;32057;47.830;19.046;2022-09-09T13:44:38;99850.03;;;25.09;50.56
46347;BME280;32057;47.830;19.046;2022-09-09T13:49:30;99847.81;;;25.00;50.09
46347;BME280;32057;47.830;19.046;2022-09-09T13:52:05;99850.75;;;24.94;51.21
46347;BME280;32057;47.830;19.046;2022-09-09T13:54:34;99856.38;;;24.88;50.73
46347;BME280;32057;47.830;19.046;2022-09-09T13:56:59;99854.66;;;24.87;51.00
46347;BME280;32057;47.830;19.046;2022-09-09T13:59:26;99852.97;;;24.84;49.74
46347;BME280;32057;47.830;19.046;2022-09-09T14:01:52;99850.13;;;24.89;54.41
46347;BME280;32057;47.830;19.046;2022-09-09T14:04:18;99846.44;;;24.91;51.25
46347;BME280;32057;47.830;19.046;2022-09-09T14:06:47;99847.91;;;24.98;51.94
46347;BME280;32057;47.830;19.046;2022-09-09T14:09:15;99848.59;;;25.02;51.23
46347;BME280;32057;47.830;19.046;2022-09-09T14:11:41;99844.84;;;25.06;50.42
46347;BME280;32057;47.830;19.046;2022-09-09T14:14:07;99848.03;;;25.14;49.94
46347;BME280;32057;47.830;19.046;2022-09-09T14:16:32;99842.78;;;25.13;48.81
46347;BME280;32057;47.830;19.046;2022-09-09T14:18:58;99841.91;;;25.12;49.46
46347;BME280;32057;47.830;19.046;2022-09-09T14:21:24;99837.22;;;25.17;49.87
46347;BME280;32057;47.830;19.046;2022-09-09T14:23:50;99836.16;;;25.21;48.21
46347;BME280;32057;47.830;19.046;2022-09-09T14:26:15;99827.59;;;25.34;51.12
46347;BME280;32057;47.830;19.046;2022-09-09T14:28:41;99820.69;;;25.30;50.27
46347;BME280;32057;47.830;19.046;2022-09-09T14:31:07;99822.84;;;25.21;50.45
46347;BME280;32057;47.830;19.046;2022-09-09T14:33:32;99819.19;;;25.24;52.44
46347;BME280;32057;47.830;19.046;2022-09-09T14:36:02;99812.94;;;25.25;50.03
46347;BME280;32057;47.830;19.046;2022-09-09T14:38:29;99816.78;;;25.37;52.47
46347;BME280;32057;47.830;19.046;2022-09-09T14:40:55;99819.28;;;25.40;49.23
46347;BME280;32057;47.830;19.046;2022-09-09T14:43:21;99819.66;;;25.32;51.18
46347;BME280;32057;47.830;19.046;2022-09-09T14:45:46;99823.84;;;25.19;48.65
46347;BME280;32057;47.830;19.046;2022-09-09T14:48:14;99821.47;;;25.13;48.54
46347;BME280;32057;47.830;19.046;2022-09-09T14:50:40;99822.94;;;25.01;48.54
46347;BME280;32057;47.830;19.046;2022-09-09T14:53:06;99811.63;;;24.96;49.97
46347;BME280;32057;47.830;19.046;2022-09-09T14:55:32;99808.34;;;24.91;49.13
46347;BME280;32057;47.830;19.046;2022-09-09T14:57:58;99797.97;;;24.84;53.70
46347;BME280;32057;47.830;19.046;2022-09-09T15:00:24;99800.16;;;24.76;54.67
46347;BME280;32057;47.830;19.046;2022-09-09T15:02:52;99805.47;;;24.76;54.63
46347;BME280;32057;47.830;19.046;2022-09-09T15:05:18;99803.00;;;24.72;56.31